logo meteoveneto

Diretta Meteo Catania-Fontanarossa, Italiadomenica 21 aprile ore 01:20

Mappa
Sereno 14 °C Sereno 24 Ore: T.min 9 T.max 24
Ponente Ovest/Sud-Ovest Km/h 24 Punto di rugiada: 9 °C Umidità: 71% Visibilità: 10 Km
Il sole sorge alle: 06:14 Il sole tramonta alle: 19:42
21 Aprile 2024 01:20 tempo osservato: Sereno Sereno 14 71 1011 vento: Nord O/SO 24
21 Aprile 2024 00:50 tempo osservato: Sereno Sereno 14 71 1011 vento: Nord O 25.9
21 Aprile 2024 00:20 tempo osservato: Sereno Sereno 14 67 1011 vento: Nord O 18.5
20 Aprile 2024 23:50 tempo osservato: Sereno Sereno 15 62 1011 vento: Nord O 18.5
20 Aprile 2024 23:20 tempo osservato: Sereno Sereno 15 62 1011 vento: Nord O 16.7
20 Aprile 2024 22:50 tempo osservato: Sereno Sereno 15 62 1011 vento: Nord O/SO 18.5
20 Aprile 2024 22:20 tempo osservato: Sereno Sereno 16 58 1011 vento: Nord O/SO 14.8
20 Aprile 2024 21:50 tempo osservato: Sereno Sereno 16 58 1011 vento: Nord O/SO 14.8
20 Aprile 2024 21:20 tempo osservato: Sereno Sereno 17 55 1011 vento: Nord O/SO 13
20 Aprile 2024 20:50 tempo osservato: Poco Nuvoloso Poco Nuvoloso 16 58 1011 vento: Nord N 5.5
20 Aprile 2024 20:20 tempo osservato: Poco Nuvoloso Poco Nuvoloso 16 63 1010 vento: Nord E/NE 7.4
20 Aprile 2024 19:50 tempo osservato: Poco Nuvoloso Poco Nuvoloso 16 58 1010 vento: Nord E 7.4
20 Aprile 2024 19:20 tempo osservato: Poco Nuvoloso Poco Nuvoloso 17 55 1010 vento: Nord E 13
20 Aprile 2024 18:50 tempo osservato: Poco Nuvoloso Poco Nuvoloso 18 51 1010 vento: Nord E 16.7
20 Aprile 2024 18:20 tempo osservato: Sereno Sereno 18 45 1010 vento: Nord E/NE 20.3
20 Aprile 2024 17:50 tempo osservato: Sereno Sereno 19 34 1010 vento: Nord NE 24
20 Aprile 2024 17:20 tempo osservato: Poco Nuvoloso Poco Nuvoloso 19 42 1010 vento: Nord NE 22.2
20 Aprile 2024 16:50 tempo osservato: Poco Nuvoloso Poco Nuvoloso 19 48 1010 vento: Nord NE 22.2
20 Aprile 2024 16:20 tempo osservato: Nuvoloso Nuvoloso 20 45 1010 vento: Nord NE 24
20 Aprile 2024 15:50 tempo osservato: Poco Nuvoloso Poco Nuvoloso 20 45 1010 vento: Nord NE 25.9
20 Aprile 2024 15:20 tempo osservato: Poco Nuvoloso Poco Nuvoloso 20 42 1010 vento: Nord E 25.9
20 Aprile 2024 14:50 tempo osservato: Poco Nuvoloso Poco Nuvoloso 23 35 1011 vento: Nord N/NE 18.5
20 Aprile 2024 14:20 tempo osservato: Poco Nuvoloso Poco Nuvoloso 24 23 1011 vento: Nord O 24
20 Aprile 2024 13:50 tempo osservato: Sereno Sereno 23 23 1011 vento: Nord O/SO 24
20 Aprile 2024 13:20 tempo osservato: Sereno Sereno 23 21 1011 vento: Nord O 27.8
20 Aprile 2024 12:50 tempo osservato: Sereno Sereno 23 23 1012 vento: Nord O 27.8
20 Aprile 2024 12:20 tempo osservato: Sereno Sereno 21 26 1012 vento: Nord O 22.2
20 Aprile 2024 11:50 tempo osservato: Sereno Sereno 21 26 1013 vento: Nord O/SO 22.2
20 Aprile 2024 11:20 tempo osservato: Sereno Sereno 20 32 1013 vento: Nord O 18.5
20 Aprile 2024 10:50 tempo osservato: Sereno Sereno 20 32 1013 vento: Nord N 9.3
20 Aprile 2024 10:20 tempo osservato: Sereno Sereno 19 34 1013 vento: Nord N 9.3
20 Aprile 2024 09:50 tempo osservato: Sereno Sereno 18 36 1013 vento: Nord O 20.3
20 Aprile 2024 09:20 tempo osservato: Sereno Sereno 17 41 1013 vento: Nord O 18.5
20 Aprile 2024 08:50 tempo osservato: Sereno Sereno 16 51 1013 vento: Nord O 22.2
20 Aprile 2024 08:20 tempo osservato: Sereno Sereno 14 58 1013 vento: Nord O 20.3
20 Aprile 2024 07:50 tempo osservato: Sereno Sereno 12 66 1013 vento: Nord O/SO 14.8
20 Aprile 2024 07:20 tempo osservato: Sereno Sereno 11 71 1013 vento: Nord O/SO 13
20 Aprile 2024 06:50 tempo osservato: Sereno Sereno 10 76 1013 vento: Nord O/SO 18.5
20 Aprile 2024 06:20 tempo osservato: Sereno Sereno 9 75 1013 vento: Nord O/SO 14.8
20 Aprile 2024 05:50 tempo osservato: Sereno Sereno 10 71 1013 vento: Nord O/SO 16.7
20 Aprile 2024 05:20 tempo osservato: Sereno Sereno 11 66 1013 vento: Nord O/SO 16.7
20 Aprile 2024 04:50 tempo osservato: Sereno Sereno 12 62 1012 vento: Nord O 20.3
20 Aprile 2024 04:20 tempo osservato: Sereno Sereno 12 62 1012 vento: Nord O 16.7
20 Aprile 2024 03:50 tempo osservato: Sereno Sereno 11 66 1013 vento: Nord O/SO 18.5
20 Aprile 2024 03:20 tempo osservato: Sereno Sereno 11 66 1013 vento: Nord SO 14.8
20 Aprile 2024 02:50 tempo osservato: Sereno Sereno 12 62 1013 vento: Nord O/SO 16.7
20 Aprile 2024 02:20 tempo osservato: Sereno Sereno 12 62 1013 vento: Nord SO 14.8
20 Aprile 2024 01:50 tempo osservato: Sereno Sereno 12 62 1013 vento: Nord O 13